createdAt,value
2018-04-19T00:01:35.277Z,34
2018-04-19T00:06:35.361Z,34
2018-04-19T00:11:35.683Z,34
2018-04-19T00:16:35.599Z,34
2018-04-19T00:21:35.457Z,34
2018-04-19T00:26:35.553Z,34
2018-04-19T00:31:35.266Z,35
2018-04-19T00:36:35.555Z,35
2018-04-19T00:41:35.293Z,35
2018-04-19T00:46:35.447Z,35
2018-04-19T00:51:35.392Z,35
2018-04-19T00:56:35.452Z,35
2018-04-19T01:01:35.607Z,36
2018-04-19T01:06:35.612Z,36
2018-04-19T01:11:35.219Z,36
2018-04-19T01:16:35.437Z,36
2018-04-19T01:21:35.195Z,36
2018-04-19T01:26:35.509Z,36
2018-04-19T01:31:35.299Z,36
2018-04-19T01:36:35.275Z,36
2018-04-19T01:41:35.262Z,36
2018-04-19T01:46:35.610Z,37
2018-04-19T01:51:35.626Z,37
2018-04-19T01:56:35.166Z,37
2018-04-19T02:01:35.448Z,37
2018-04-19T02:06:35.243Z,38
2018-04-19T02:11:35.303Z,38
2018-04-19T02:16:35.508Z,38
2018-04-19T02:21:35.473Z,39
2018-04-19T02:26:35.417Z,39
2018-04-19T02:31:35.128Z,39
2018-04-19T02:36:35.515Z,39
2018-04-19T02:41:35.432Z,39
2018-04-19T02:46:35.387Z,39
2018-04-19T02:51:35.241Z,40
2018-04-19T02:56:35.577Z,40
2018-04-19T03:01:35.205Z,40
2018-04-19T03:06:35.203Z,40
2018-04-19T03:11:35.281Z,40
2018-04-19T03:16:34.996Z,40
2018-04-19T03:21:35.152Z,40
2018-04-19T03:26:34.973Z,41
2018-04-19T03:31:35.131Z,41
2018-04-19T03:36:35.309Z,41
2018-04-19T03:41:35.047Z,41
2018-04-19T03:46:35.219Z,42
2018-04-19T03:51:35.171Z,42
2018-04-19T03:56:35.196Z,42
2018-04-19T04:01:35.186Z,42
2018-04-19T04:06:35.022Z,42
2018-04-19T04:11:35.339Z,42
2018-04-19T04:16:35.020Z,43
2018-04-19T04:21:35.534Z,43
2018-04-19T04:26:35.147Z,43
2018-04-19T04:31:35.122Z,43
2018-04-19T04:36:35.377Z,43
2018-04-19T04:41:34.843Z,43
2018-04-19T04:46:34.860Z,43
2018-04-19T04:51:34.788Z,44
2018-04-19T04:56:35.042Z,44
2018-04-19T05:01:35.152Z,44
2018-04-19T05:06:34.825Z,44
2018-04-19T05:11:34.846Z,44
2018-04-19T05:16:34.916Z,44
2018-04-19T05:21:34.844Z,44
2018-04-19T05:26:35.029Z,44
2018-04-19T05:31:34.681Z,44
2018-04-19T05:36:34.837Z,43
2018-04-19T05:41:34.735Z,43
2018-04-19T05:46:35.042Z,43
2018-04-19T05:51:34.872Z,43
2018-04-19T05:56:35.015Z,43
2018-04-19T06:01:35.082Z,42
2018-04-19T06:06:34.969Z,42
2018-04-19T06:11:34.784Z,42
2018-04-19T06:16:34.952Z,42
2018-04-19T06:21:34.913Z,42
2018-04-19T06:26:35.030Z,41
2018-04-19T06:31:34.701Z,41
2018-04-19T06:36:35.009Z,41
2018-04-19T06:41:34.579Z,40
2018-04-19T06:46:34.839Z,40
2018-04-19T06:51:34.735Z,40
2018-04-19T06:56:34.622Z,40
2018-04-19T07:01:34.775Z,40
2018-04-19T07:06:34.824Z,39
2018-04-19T07:11:34.867Z,39
2018-04-19T07:16:34.568Z,39
2018-04-19T07:21:34.693Z,39
2018-04-19T07:26:34.554Z,39
2018-04-19T07:31:34.738Z,39
2018-04-19T07:36:34.900Z,39
2018-04-19T07:41:34.860Z,37
2018-04-19T07:46:34.823Z,37
2018-04-19T07:51:34.643Z,37
2018-04-19T07:56:34.768Z,37
2018-04-19T08:01:34.818Z,37
2018-04-19T08:06:34.875Z,37
2018-04-19T08:11:34.781Z,37
2018-04-19T08:16:34.609Z,37
2018-04-19T08:21:34.553Z,35
2018-04-19T08:26:35.231Z,34
2018-04-19T08:31:34.733Z,34
2018-04-19T08:36:34.982Z,33
2018-04-19T08:41:34.467Z,33
2018-04-19T08:46:34.691Z,33
2018-04-19T08:51:34.552Z,33
2018-04-19T08:56:34.653Z,33
2018-04-19T09:01:34.540Z,33
2018-04-19T09:06:35.820Z,32
2018-04-19T09:11:34.595Z,32
2018-04-19T09:16:34.566Z,31
2018-04-19T09:21:34.466Z,31
2018-04-19T09:26:34.753Z,31
2018-04-19T09:31:34.655Z,31
2018-04-19T09:36:34.712Z,31
2018-04-19T09:41:34.691Z,30
2018-04-19T09:46:34.430Z,30
2018-04-19T09:51:34.528Z,30
2018-04-19T09:56:34.896Z,30
2018-04-19T10:01:34.952Z,28
2018-04-19T10:06:34.632Z,28
2018-04-19T10:11:35.111Z,28
2018-04-19T10:16:34.739Z,28
2018-04-19T10:21:34.322Z,27
2018-04-19T10:26:34.596Z,27
2018-04-19T10:31:34.666Z,26
2018-04-19T10:36:34.443Z,26
2018-04-19T10:41:34.301Z,26
2018-04-19T10:46:34.611Z,26
2018-04-19T10:51:34.319Z,26
2018-04-19T10:56:34.611Z,26
2018-04-19T11:01:34.307Z,25
2018-04-19T11:06:34.387Z,25
2018-04-19T11:11:34.442Z,25
2018-04-19T11:16:34.302Z,25
2018-04-19T11:21:34.677Z,25
2018-04-19T11:26:34.256Z,25
2018-04-19T11:31:34.586Z,25
2018-04-19T11:36:34.559Z,25
2018-04-19T11:41:34.267Z,25
2018-04-19T11:46:34.227Z,25
2018-04-19T11:51:34.672Z,25
2018-04-19T11:56:34.270Z,25
2018-04-19T12:01:34.445Z,24
2018-04-19T12:06:34.147Z,24
2018-04-19T12:11:34.506Z,24
2018-04-19T12:16:34.371Z,24
2018-04-19T12:21:34.114Z,24
2018-04-19T12:26:34.442Z,24
2018-04-19T12:31:34.364Z,24
2018-04-19T12:36:34.157Z,24
2018-04-19T12:41:34.184Z,24
2018-04-19T12:46:34.413Z,24
2018-04-19T12:51:34.362Z,24
2018-04-19T12:56:34.355Z,23
2018-04-19T13:01:34.143Z,23
2018-04-19T13:06:34.351Z,23
2018-04-19T13:11:34.382Z,23
2018-04-19T13:16:34.014Z,22
2018-04-19T13:21:34.181Z,22
2018-04-19T13:26:34.019Z,22
2018-04-19T13:31:34.273Z,22
2018-04-19T13:36:33.965Z,22
2018-04-19T13:41:34.357Z,22
2018-04-19T13:46:34.098Z,22
2018-04-19T13:51:34.111Z,22
2018-04-19T13:56:34.062Z,21
2018-04-19T14:01:34.071Z,21
2018-04-19T14:06:34.090Z,21
2018-04-19T14:11:34.095Z,21
2018-04-19T14:16:34.216Z,21
2018-04-19T14:21:34.253Z,21
2018-04-19T14:26:33.961Z,21
2018-04-19T14:31:34.012Z,20
2018-04-19T14:36:34.050Z,20
2018-04-19T14:41:33.869Z,20
2018-04-19T14:46:33.908Z,20
2018-04-19T14:51:33.834Z,20
2018-04-19T14:56:34.307Z,20
2018-04-19T15:01:33.913Z,20
2018-04-19T15:06:33.883Z,20
2018-04-19T15:11:33.930Z,20
2018-04-19T15:16:34.139Z,20
2018-04-19T15:21:33.873Z,20
2018-04-19T15:26:33.797Z,20
2018-04-19T15:31:34.085Z,20
2018-04-19T15:36:34.107Z,20
2018-04-19T15:41:33.722Z,20
2018-04-19T15:46:33.825Z,20
2018-04-19T15:51:34.545Z,20
2018-04-19T15:56:33.906Z,20
2018-04-19T16:01:33.903Z,20
2018-04-19T16:06:33.933Z,20
2018-04-19T16:11:34.054Z,20
2018-04-19T16:16:33.794Z,20
2018-04-19T16:21:33.967Z,20
2018-04-19T16:26:33.717Z,20
2018-04-19T16:31:33.894Z,20
2018-04-19T16:36:33.760Z,20
2018-04-19T16:41:33.989Z,21
2018-04-19T16:46:34.104Z,21
2018-04-19T16:51:34.009Z,21
2018-04-19T16:56:33.895Z,20
2018-04-19T17:01:33.867Z,20
2018-04-19T17:06:33.658Z,21
2018-04-19T17:11:34.006Z,21
2018-04-19T17:16:33.617Z,21
2018-04-19T17:21:33.769Z,21
2018-04-19T17:26:33.708Z,21
2018-04-19T17:31:33.610Z,21
2018-04-19T17:36:33.944Z,21
2018-04-19T17:41:33.959Z,21
2018-04-19T17:46:33.788Z,21
2018-04-19T17:51:34.229Z,21
2018-04-19T17:56:33.576Z,21
2018-04-19T18:01:33.921Z,21
2018-04-19T18:06:33.541Z,21
2018-04-19T18:11:33.945Z,21
2018-04-19T18:16:33.682Z,21
2018-04-19T18:21:33.700Z,21
2018-04-19T18:26:33.824Z,21
2018-04-19T18:31:33.565Z,21
2018-04-19T18:36:33.676Z,22
2018-04-19T18:41:33.884Z,22
2018-04-19T18:46:33.840Z,22
2018-04-19T18:51:33.626Z,22
2018-04-19T18:56:33.429Z,22
2018-04-19T19:01:33.582Z,22
2018-04-19T19:06:33.809Z,22
2018-04-19T19:11:33.570Z,22
2018-04-19T19:16:33.613Z,23
2018-04-19T19:21:33.675Z,23
2018-04-19T19:26:33.631Z,23
2018-04-19T19:31:33.423Z,23
2018-04-19T19:36:33.705Z,23
2018-04-19T19:41:33.750Z,23
2018-04-19T19:46:33.372Z,23
2018-04-19T19:51:33.464Z,23
2018-04-19T19:56:33.685Z,23
2018-04-19T20:01:33.622Z,24
2018-04-19T20:06:33.620Z,24
2018-04-19T20:11:33.452Z,25
2018-04-19T20:16:33.351Z,26
2018-04-19T20:21:33.354Z,27
2018-04-19T20:26:33.708Z,28
2018-04-19T20:31:33.476Z,29
2018-04-19T20:36:33.684Z,31
2018-04-19T20:41:33.543Z,31
2018-04-19T20:46:33.315Z,32
2018-04-19T20:51:33.598Z,32
2018-04-19T20:56:33.438Z,32
2018-04-19T21:01:33.661Z,32
2018-04-19T21:06:33.547Z,33
2018-04-19T21:11:33.781Z,33
2018-04-19T21:16:33.556Z,33
2018-04-19T21:21:33.261Z,33
2018-04-19T21:26:33.475Z,33
2018-04-19T21:31:33.556Z,33
2018-04-19T21:36:33.254Z,33
2018-04-19T21:41:33.452Z,33
2018-04-19T21:46:33.492Z,33
2018-04-19T21:51:33.578Z,33
2018-04-19T21:56:33.588Z,34
2018-04-19T22:01:33.323Z,34
2018-04-19T22:06:33.210Z,34
2018-04-19T22:11:33.223Z,34
2018-04-19T22:16:33.430Z,34
2018-04-19T22:21:33.543Z,35
2018-04-19T22:26:33.493Z,35
2018-04-19T22:31:33.377Z,35
2018-04-19T22:36:33.367Z,35
2018-04-19T22:41:33.451Z,35
2018-04-19T22:46:33.327Z,35
2018-04-19T22:51:33.150Z,35
2018-04-19T22:56:33.416Z,35
2018-04-19T23:01:33.222Z,36
2018-04-19T23:06:33.140Z,36
2018-04-19T23:11:33.461Z,36
2018-04-19T23:16:33.325Z,37
2018-04-19T23:21:33.139Z,37
2018-04-19T23:26:33.256Z,37
2018-04-19T23:31:33.162Z,38
2018-04-19T23:36:33.199Z,38
2018-04-19T23:41:33.478Z,39
2018-04-19T23:46:33.340Z,39
2018-04-19T23:51:33.127Z,39
2018-04-19T23:56:33.316Z,39
